Time;durP1;ratioP1;P1;durP2;ratioP2;P2;SDS_P1;SDS_P2;PMS_P1;PMS_P2;Temp;Humidity;BMP_temperature;BMP_pressure;BME280_temperature;BME280_humidity;BME280_pressure;Samples;Min_cycle;Max_cycle;Signal;HPM_P1;HPM_P2
2022/05/25 00:01:06;;;;;;;0.63;0.60;;;;;;;11.94;85.81;99990.44;5071300;28;20177;-71
2022/05/25 00:03:33;;;;;;;0.00;0.00;;;;;;;11.90;86.47;99990.31;5074201;28;20178;-71
2022/05/25 00:06:00;;;;;;;0.00;0.00;;;;;;;11.89;86.21;99998.84;5074019;28;20193;-71
2022/05/25 00:08:26;;;;;;;0.57;0.57;;;;;;;11.85;86.36;99986.94;5071555;28;20198;-71
2022/05/25 00:10:52;;;;;;;0.20;0.20;;;;;;;11.88;85.88;99999.97;5071494;28;20175;-71
2022/05/25 00:13:17;;;;;;;2.17;2.07;;;;;;;11.90;86.08;100004.00;5071332;28;20661;-71
2022/05/25 00:15:44;;;;;;;0.00;0.00;;;;;;;11.94;85.68;99997.84;5071417;28;20243;-71
2022/05/25 00:18:09;;;;;;;0.20;0.20;;;;;;;11.91;85.96;100002.84;5070904;28;20634;-71
2022/05/25 00:20:35;;;;;;;0.93;0.93;;;;;;;11.95;85.80;100002.97;5071280;28;20171;-71
2022/05/25 00:23:01;;;;;;;0.80;0.67;;;;;;;11.95;85.35;100004.91;5066852;28;20183;-71
2022/05/25 00:25:30;;;;;;;1.23;0.53;;;;;;;11.93;85.46;100008.00;5071099;28;20190;-71
2022/05/25 00:27:58;;;;;;;0.10;0.10;;;;;;;11.91;86.07;100002.06;5070943;28;20178;-71
2022/05/25 00:30:25;;;;;;;0.10;0.10;;;;;;;11.90;86.00;100001.25;5071234;28;20221;-71
2022/05/25 00:32:50;;;;;;;0.37;0.37;;;;;;;11.93;85.61;100008.00;5070960;28;20166;-71
2022/05/25 00:35:18;;;;;;;0.37;0.37;;;;;;;11.94;85.86;100014.25;5071050;28;20680;-71
2022/05/25 00:37:44;;;;;;;0.33;0.33;;;;;;;11.93;86.41;100015.41;5070411;28;20707;-72
2022/05/25 00:40:13;;;;;;;0.10;0.10;;;;;;;11.95;86.17;100018.59;5071092;28;20178;-71
2022/05/25 00:42:38;;;;;;;0.60;0.60;;;;;;;11.94;86.37;100026.03;5070685;28;20167;-71
2022/05/25 00:45:06;;;;;;;0.23;0.23;;;;;;;11.93;86.14;100023.63;5070632;28;20660;-71
2022/05/25 00:47:32;;;;;;;0.30;0.30;;;;;;;11.90;86.45;100028.63;5074121;28;20194;-71
2022/05/25 00:49:58;;;;;;;0.27;0.20;;;;;;;11.90;86.69;100027.81;5075060;28;20194;-71
2022/05/25 00:52:25;;;;;;;0.10;0.10;;;;;;;11.86;86.57;100035.06;5074898;28;20189;-72
2022/05/25 00:54:59;;;;;;;0.00;0.00;;;;;;;11.85;86.75;100022.50;5074828;28;20188;-72
2022/05/25 00:57:33;;;;;;;0.00;0.00;;;;;;;11.85;87.26;100028.00;5074770;28;20710;-71
2022/05/25 01:00:12;;;;;;;0.73;0.73;;;;;;;11.78;88.38;100020.28;5074875;28;20162;-71
2022/05/25 01:03:06;;;;;;;0.97;0.97;;;;;;;11.77;87.99;100024.16;5074576;28;20170;-71
2022/05/25 01:05:38;;;;;;;0.03;0.03;;;;;;;11.72;87.65;100016.13;5064802;28;20190;-71
2022/05/25 01:08:25;;;;;;;0.30;0.30;;;;;;;11.68;88.40;100020.63;5074392;28;20512;-71
2022/05/25 01:11:32;;;;;;;0.30;0.30;;;;;;;11.69;87.89;100027.72;5074601;28;20181;-71
2022/05/25 01:14:11;;;;;;;0.20;0.20;;;;;;;11.70;88.08;100028.50;4992333;28;20237;-71
2022/05/25 01:16:50;;;;;;;0.73;0.47;;;;;;;11.68;88.34;100031.59;4992723;28;20173;-71
2022/05/25 01:19:39;;;;;;;0.20;0.13;;;;;;;11.66;88.63;100031.13;5045352;28;20216;-73
2022/05/25 01:22:24;;;;;;;0.63;0.63;;;;;;;11.63;88.15;100034.50;5074331;28;20171;-71
2022/05/25 01:24:59;;;;;;;0.57;0.57;;;;;;;11.62;88.96;100028.25;5074368;28;20214;-72
2022/05/25 01:27:37;;;;;;;0.20;0.10;;;;;;;11.60;88.25;100025.03;5074321;28;20216;-71
2022/05/25 01:30:05;;;;;;;0.10;0.10;;;;;;;11.59;88.74;100031.63;5072978;28;20254;-71
2022/05/25 01:32:42;;;;;;;0.30;0.30;;;;;;;11.60;88.82;100030.50;5074271;28;20170;-71
2022/05/25 01:35:19;;;;;;;0.07;0.07;;;;;;;11.57;89.02;100042.13;5069400;28;20273;-71
2022/05/25 01:37:53;;;;;;;1.53;0.43;;;;;;;11.56;89.03;100037.75;5072120;28;20190;-71
2022/05/25 01:40:35;;;;;;;0.60;0.57;;;;;;;11.56;88.68;100040.47;5073853;28;20173;-71
2022/05/25 01:43:06;;;;;;;0.13;0.07;;;;;;;11.55;89.62;100047.09;5074163;28;20162;-71
2022/05/25 01:45:36;;;;;;;0.10;0.10;;;;;;;11.55;88.68;100041.63;5073977;28;20174;-72
2022/05/25 01:48:05;;;;;;;0.27;0.27;;;;;;;11.55;89.15;100040.81;5074149;28;20690;-70
2022/05/25 01:50:44;;;;;;;0.77;0.70;;;;;;;11.53;88.66;100040.34;5073893;28;20174;-71
2022/05/25 01:53:12;;;;;;;0.63;0.57;;;;;;;11.51;88.95;100042.59;5074022;28;20186;-71
2022/05/25 01:55:50;;;;;;;0.30;0.30;;;;;;;11.49;89.42;100042.13;5073761;28;20179;-71
2022/05/25 01:58:18;;;;;;;0.20;0.20;;;;;;;11.50;89.18;100046.47;5073396;28;20224;-71
2022/05/25 02:00:50;;;;;;;0.00;0.00;;;;;;;11.46;90.07;100051.00;5073548;28;20651;-71
2022/05/25 02:06:37;;;;;;;0.00;0.00;;;;;;;11.34;90.41;100054.41;5073675;28;20629;-71
2022/05/25 02:09:08;;;;;;;0.00;0.00;;;;;;;11.44;91.17;100062.28;5073519;28;20189;-72
2022/05/25 02:11:40;;;;;;;0.00;0.00;;;;;;;11.02;93.12;100053.03;5073629;28;20514;-72
2022/05/25 02:14:52;;;;;;;1.50;1.40;;;;;;;10.77;96.40;100062.84;5073545;28;20166;-71
2022/05/25 02:17:41;;;;;;;0.00;0.00;;;;;;;10.94;97.78;100073.75;5072870;28;20258;-71
2022/05/25 02:20:13;;;;;;;0.00;0.00;;;;;;;10.88;98.30;100069.59;5072748;28;20174;-71
2022/05/25 02:22:49;;;;;;;0.00;0.00;;;;;;;10.98;98.13;100074.72;5072888;28;20231;-74
2022/05/25 02:25:36;;;;;;;0.00;0.00;;;;;;;10.96;98.14;100076.16;5073083;28;20171;-71
2022/05/25 02:28:31;;;;;;;0.00;0.00;;;;;;;11.05;97.32;100079.72;5072511;28;20315;-71
2022/05/25 02:31:00;;;;;;;0.00;0.00;;;;;;;11.15;96.26;100079.38;5070465;28;20198;-72
2022/05/25 02:33:34;;;;;;;0.00;0.00;;;;;;;11.13;96.11;100083.53;5072855;28;20216;-71
2022/05/25 02:36:01;;;;;;;0.00;0.00;;;;;;;11.10;95.67;100085.00;5072202;28;20697;-72
2022/05/25 02:38:27;;;;;;;0.00;0.00;;;;;;;10.82;95.34;100087.25;5072233;28;20181;-71
2022/05/25 02:41:03;;;;;;;0.00;0.00;;;;;;;10.46;98.77;100065.72;5072391;28;20182;-72
2022/05/25 02:43:29;;;;;;;0.00;0.00;;;;;;;10.22;100.00;100079.81;5072290;28;20259;-71
2022/05/25 02:45:54;;;;;;;0.00;0.00;;;;;;;10.34;100.00;100074.53;5072074;28;20220;-71
2022/05/25 02:48:19;;;;;;;0.00;0.00;;;;;;;10.02;100.00;100070.28;5072540;28;20198;-71
2022/05/25 02:50:44;;;;;;;0.00;0.00;;;;;;;10.20;100.00;100075.75;5072348;28;20513;-71
2022/05/25 02:53:11;;;;;;;0.00;0.00;;;;;;;10.23;100.00;100088.81;5072692;28;20171;-72
2022/05/25 02:55:37;;;;;;;0.30;0.30;;;;;;;10.07;100.00;100082.97;5072650;28;20647;-71
2022/05/25 02:58:02;;;;;;;0.00;0.00;;;;;;;10.13;100.00;100084.44;5072517;28;20206;-72
2022/05/25 03:00:28;;;;;;;0.00;0.00;;;;;;;10.06;100.00;100090.34;5072569;28;20634;-72
2022/05/25 03:02:56;;;;;;;0.20;0.20;;;;;;;9.99;100.00;100095.47;5072234;28;20534;-71
2022/05/25 03:05:22;;;;;;;0.00;0.00;;;;;;;9.94;100.00;100101.06;5072404;28;20763;-72
2022/05/25 03:07:47;;;;;;;0.00;0.00;;;;;;;9.73;100.00;100089.91;5072208;28;20175;-72
2022/05/25 03:10:13;;;;;;;0.37;0.37;;;;;;;9.76;100.00;100094.72;5071723;28;20355;-71
2022/05/25 03:12:38;;;;;;;0.07;0.03;;;;;;;9.70;100.00;100100.66;5072303;28;20183;-72
2022/05/25 03:15:05;;;;;;;0.00;0.00;;;;;;;9.61;100.00;100097.06;5071914;28;20621;-72
2022/05/25 03:17:30;;;;;;;0.00;0.00;;;;;;;9.64;100.00;100105.41;5072015;28;20228;-73
2022/05/25 03:19:56;;;;;;;0.00;0.00;;;;;;;9.65;100.00;100109.75;5072230;28;20541;-71
2022/05/25 03:22:22;;;;;;;0.00;0.00;;;;;;;9.67;100.00;100114.88;5072336;28;20181;-76
2022/05/25 03:24:48;;;;;;;0.00;0.00;;;;;;;9.67;100.00;100117.63;5072361;28;20258;-71
2022/05/25 03:27:14;;;;;;;0.00;0.00;;;;;;;9.75;100.00;100119.59;5071818;28;20602;-71
2022/05/25 03:29:40;;;;;;;0.00;0.00;;;;;;;9.93;100.00;100121.28;5068696;28;20688;-70
2022/05/25 03:32:05;;;;;;;0.00;0.00;;;;;;;9.90;100.00;100124.63;5071884;28;20235;-72
2022/05/25 03:34:32;;;;;;;0.00;0.00;;;;;;;10.03;100.00;100126.47;5071815;28;20174;-72
2022/05/25 03:36:57;;;;;;;0.00;0.00;;;;;;;10.05;100.00;100129.69;5071684;28;20185;-71
2022/05/25 03:39:25;;;;;;;0.00;0.00;;;;;;;9.76;100.00;100132.13;5071148;28;20570;-71
2022/05/25 03:41:59;;;;;;;0.00;0.00;;;;;;;9.78;100.00;100130.69;5071631;28;20194;-71
2022/05/25 03:44:24;;;;;;;0.00;0.00;;;;;;;9.73;100.00;100128.09;5071660;28;20191;-72
2022/05/25 03:46:51;;;;;;;0.00;0.00;;;;;;;9.98;100.00;100140.25;5071877;28;20174;-72
2022/05/25 03:49:17;;;;;;;0.00;0.00;;;;;;;10.01;100.00;100144.28;5071346;28;20553;-72
2022/05/25 03:51:43;;;;;;;0.00;0.00;;;;;;;10.18;100.00;100133.41;5071649;28;20725;-71
2022/05/25 03:54:08;;;;;;;0.00;0.00;;;;;;;10.20;100.00;100138.56;5071690;28;20265;-71
2022/05/25 03:56:34;;;;;;;0.00;0.00;;;;;;;10.21;100.00;100135.53;5071606;28;20170;-72
2022/05/25 03:58:59;;;;;;;0.00;0.00;;;;;;;10.26;100.00;100148.22;5071707;28;20182;-71
2022/05/25 04:01:25;;;;;;;0.00;0.00;;;;;;;10.15;100.00;100144.97;5071453;28;20450;-71
2022/05/25 04:03:50;;;;;;;0.00;0.00;;;;;;;10.12;100.00;100143.66;5065665;28;20217;-71
2022/05/25 04:06:15;;;;;;;0.00;0.00;;;;;;;10.11;100.00;100143.97;5071126;28;20277;-71
2022/05/25 04:08:40;;;;;;;0.00;0.00;;;;;;;10.17;100.00;100152.84;5071162;28;20288;-70
2022/05/25 04:11:06;;;;;;;0.00;0.00;;;;;;;10.24;100.00;100148.56;5071197;28;20278;-71
2022/05/25 04:13:31;;;;;;;0.00;0.00;;;;;;;10.36;100.00;100142.50;5071652;28;20255;-74
2022/05/25 04:15:56;;;;;;;0.00;0.00;;;;;;;10.43;100.00;100148.31;5071117;28;20541;-71
2022/05/25 04:18:22;;;;;;;0.00;0.00;;;;;;;10.47;100.00;100148.47;5071063;28;20533;-71
2022/05/25 04:20:47;;;;;;;0.00;0.00;;;;;;;10.53;100.00;100147.19;5071004;28;20227;-71
2022/05/25 04:23:13;;;;;;;0.00;0.00;;;;;;;10.47;100.00;100156.66;5071031;28;20182;-71
2022/05/25 04:25:40;;;;;;;0.00;0.00;;;;;;;10.50;100.00;100156.81;5070834;28;20574;-72
2022/05/25 04:28:06;;;;;;;0.00;0.00;;;;;;;10.61;100.00;100160.88;5070528;28;20186;-72
2022/05/25 04:30:32;;;;;;;0.13;0.13;;;;;;;10.71;100.00;100154.31;5071072;28;20178;-72
2022/05/25 04:32:57;;;;;;;0.00;0.00;;;;;;;10.72;100.00;100154.00;5071120;28;20653;-71
2022/05/25 04:35:24;;;;;;;0.00;0.00;;;;;;;10.75;99.64;100149.81;5071057;28;20273;-71
2022/05/25 04:37:52;;;;;;;0.10;0.10;;;;;;;10.82;98.70;100143.84;5070730;28;20193;-70
2022/05/25 04:40:39;;;;;;;0.10;0.10;;;;;;;10.81;98.40;100153.97;5070979;28;20174;-75
2022/05/25 04:43:07;;;;;;;0.00;0.00;;;;;;;10.83;98.42;100148.19;5070264;28;20191;-72
2022/05/25 04:45:34;;;;;;;1.77;0.33;;;;;;;10.87;98.17;100168.31;5071041;28;20689;-73
2022/05/25 04:48:01;;;;;;;0.03;0.03;;;;;;;10.93;98.39;100170.56;5070725;28;20174;-72
2022/05/25 04:50:33;;;;;;;0.10;0.10;;;;;;;10.99;97.83;100160.25;5070860;28;20182;-73
2022/05/25 04:52:59;;;;;;;0.40;0.40;;;;;;;11.05;97.16;100161.72;5070609;28;20166;-71
2022/05/25 04:58:21;;;;;;;0.13;0.13;;;;;;;11.11;97.81;100174.09;5071079;28;20186;-72
2022/05/25 05:00:47;;;;;;;0.13;0.13;;;;;;;11.14;97.49;100167.19;5070867;28;20162;-72
2022/05/25 05:03:12;;;;;;;0.80;0.80;;;;;;;11.14;97.54;100164.44;5070842;28;20190;-72
2022/05/25 05:05:38;;;;;;;0.20;0.20;;;;;;;11.19;96.30;100164.31;5070787;28;20179;-72
2022/05/25 05:08:05;;;;;;;0.93;0.93;;;;;;;11.24;96.55;100172.34;5070493;28;20288;-71
2022/05/25 05:10:30;;;;;;;1.60;1.20;;;;;;;11.26;96.32;100176.34;5070676;28;20202;-73
2022/05/25 05:12:55;;;;;;;1.07;0.80;;;;;;;11.32;96.53;100171.53;5070670;28;20260;-71
2022/05/25 05:15:21;;;;;;;0.10;0.10;;;;;;;11.37;96.23;100179.56;5070554;28;20214;-71
2022/05/25 05:17:46;;;;;;;1.00;0.93;;;;;;;11.41;96.17;100187.91;5070339;28;20248;-71
2022/05/25 05:20:12;;;;;;;9.73;1.60;;;;;;;11.43;96.19;100186.50;5071013;28;20174;-71
2022/05/25 05:22:37;;;;;;;0.33;0.20;;;;;;;11.44;95.40;100190.84;5071053;28;20581;-72
2022/05/25 05:25:04;;;;;;;0.00;0.00;;;;;;;11.53;96.20;100197.09;5070632;28;20192;-72
2022/05/25 05:27:29;;;;;;;1.60;1.50;;;;;;;11.59;96.03;100203.22;5070373;28;20308;-73
2022/05/25 05:30:00;;;;;;;0.00;0.00;;;;;;;11.65;95.63;100199.16;5070499;28;20285;-72
2022/05/25 05:32:25;;;;;;;0.73;0.73;;;;;;;11.67;94.36;100199.66;5071743;28;20166;-72
2022/05/25 05:34:51;;;;;;;1.47;1.30;;;;;;;11.74;94.02;100205.44;5074100;28;20224;-73
2022/05/25 05:37:22;;;;;;;0.53;0.53;;;;;;;11.75;92.44;100204.31;5073715;28;20648;-72
2022/05/25 05:39:51;;;;;;;0.90;0.90;;;;;;;11.82;92.89;100206.56;5073900;28;20653;-71
2022/05/25 05:42:19;;;;;;;0.50;0.50;;;;;;;11.86;92.20;100207.53;5073895;28;20317;-72
2022/05/25 05:45:00;;;;;;;0.60;0.60;;;;;;;11.88;91.62;100208.81;5073861;28;20183;-74
2022/05/25 05:47:32;;;;;;;0.80;0.80;;;;;;;11.96;91.63;100215.41;5074224;28;20193;-72
2022/05/25 05:49:59;;;;;;;0.77;0.77;;;;;;;11.97;90.88;100205.25;5074127;28;20242;-71
2022/05/25 05:52:25;;;;;;;0.30;0.30;;;;;;;11.97;90.85;100199.78;5073818;28;20268;-74
2022/05/25 05:54:51;;;;;;;1.47;1.10;;;;;;;12.01;91.24;100200.75;5073764;28;20175;-72
2022/05/25 05:57:16;;;;;;;0.83;0.83;;;;;;;12.01;91.11;100203.47;5073606;28;20174;-72
2022/05/25 05:59:42;;;;;;;0.50;0.50;;;;;;;12.08;90.84;100212.78;5073294;28;20627;-73
2022/05/25 06:02:08;;;;;;;0.70;0.70;;;;;;;12.18;91.24;100217.91;5073633;28;20476;-72
2022/05/25 06:04:34;;;;;;;0.53;0.40;;;;;;;12.28;91.17;100222.22;5071931;28;20178;-72
2022/05/25 06:06:59;;;;;;;0.60;0.60;;;;;;;12.33;90.70;100219.31;5073043;28;20295;-71
2022/05/25 06:09:24;;;;;;;0.17;0.10;;;;;;;12.34;90.72;100228.34;5073379;28;20299;-71
2022/05/25 06:11:50;;;;;;;1.40;1.23;;;;;;;12.35;89.12;100225.25;5073313;28;20663;-71
2022/05/25 06:14:15;;;;;;;2.17;1.97;;;;;;;12.42;89.86;100236.50;5073404;28;20222;-73
2022/05/25 06:19:28;;;;;;;0.27;0.27;;;;;;;12.62;90.03;100242.41;5073229;28;20205;-72
2022/05/25 06:21:58;;;;;;;2.60;2.40;;;;;;;12.69;88.85;100242.69;5073596;28;20178;-73
2022/05/25 06:24:24;;;;;;;1.87;1.77;;;;;;;12.70;88.76;100241.53;5073285;28;20174;-72
2022/05/25 06:26:49;;;;;;;0.97;0.97;;;;;;;12.77;89.44;100247.31;5072896;28;20720;-71
2022/05/25 06:29:17;;;;;;;1.00;1.00;;;;;;;12.86;88.07;100252.75;5072675;28;20194;-72
2022/05/25 06:31:43;;;;;;;0.50;0.47;;;;;;;12.92;87.27;100245.94;5073123;28;20177;-72
2022/05/25 06:34:08;;;;;;;0.57;0.57;;;;;;;12.99;86.89;100257.19;5073007;28;20847;-74
2022/05/25 06:36:34;;;;;;;1.77;1.63;;;;;;;13.03;86.89;100244.44;5072563;28;20722;-74
2022/05/25 06:39:00;;;;;;;4.60;2.37;;;;;;;13.07;85.86;100245.38;5072853;28;20166;-72
2022/05/25 06:41:26;;;;;;;0.40;0.37;;;;;;;13.11;85.63;100255.31;5072911;28;20574;-72
2022/05/25 06:43:52;;;;;;;0.00;0.00;;;;;;;13.21;86.54;100254.19;5072019;28;20261;-72
2022/05/25 06:46:19;;;;;;;1.33;1.23;;;;;;;13.13;84.94;100255.00;5072774;28;20273;-74
2022/05/25 06:48:45;;;;;;;1.37;1.30;;;;;;;13.25;85.95;100259.78;5072459;28;20549;-72
2022/05/25 06:51:17;;;;;;;2.23;2.00;;;;;;;13.44;84.75;100260.13;5071493;28;20171;-63
2022/05/25 06:53:43;;;;;;;2.17;1.97;;;;;;;13.54;84.57;100258.91;5072365;28;20166;-73
2022/05/25 06:56:09;;;;;;;0.97;0.97;;;;;;;13.54;83.92;100264.41;5072549;28;20519;-72
2022/05/25 06:58:35;;;;;;;1.80;1.40;;;;;;;13.57;84.51;100271.97;5072304;28;20174;-72
2022/05/25 07:01:01;;;;;;;0.00;0.00;;;;;;;13.57;84.70;100270.03;5072467;28;20178;-72
2022/05/25 07:03:26;;;;;;;1.93;1.73;;;;;;;13.58;84.46;100268.88;5072343;28;20201;-71
2022/05/25 07:05:52;;;;;;;1.40;0.77;;;;;;;13.65;84.09;100271.91;5072148;28;20170;-73
2022/05/25 07:08:18;;;;;;;1.27;1.27;;;;;;;13.67;83.84;100277.88;5071903;28;20244;-72
2022/05/25 07:10:46;;;;;;;0.90;0.90;;;;;;;13.61;83.54;100275.66;5072102;28;20171;-74
2022/05/25 07:13:16;;;;;;;3.30;1.70;;;;;;;13.65;84.49;100277.41;5072219;28;20266;-72
2022/05/25 07:15:42;;;;;;;1.50;1.40;;;;;;;13.64;83.73;100280.50;5072221;28;20253;-72
2022/05/25 07:18:07;;;;;;;1.23;1.23;;;;;;;13.76;83.13;100282.50;5071731;28;20201;-73
2022/05/25 07:20:32;;;;;;;1.47;1.37;;;;;;;13.89;82.27;100282.22;5072017;28;20206;-71
2022/05/25 07:22:58;;;;;;;2.27;2.17;;;;;;;13.78;80.59;100285.69;5070762;28;20179;-72
2022/05/25 07:25:23;;;;;;;2.50;1.60;;;;;;;13.69;81.46;100286.56;5071952;28;20186;-71
2022/05/25 07:27:48;;;;;;;0.83;0.67;;;;;;;13.81;83.04;100288.56;5068992;28;20243;-71
2022/05/25 07:30:16;;;;;;;2.67;2.47;;;;;;;13.89;83.41;100304.19;5071380;28;20419;-71
2022/05/25 07:32:42;;;;;;;1.80;1.70;;;;;;;14.05;82.71;100298.84;5070517;28;20171;-72
2022/05/25 07:35:09;;;;;;;1.13;1.03;;;;;;;14.11;81.43;100294.75;5071879;28;20181;-71
2022/05/25 07:37:37;;;;;;;1.93;1.80;;;;;;;14.28;81.35;100302.81;5071316;28;20189;-72
2022/05/25 07:40:12;;;;;;;0.47;0.47;;;;;;;14.36;79.01;100303.88;5070420;28;20175;-71
2022/05/25 07:42:42;;;;;;;1.73;1.63;;;;;;;14.51;77.68;100302.44;5071340;28;20219;-71
2022/05/25 07:45:08;;;;;;;1.00;1.00;;;;;;;14.27;76.42;100301.19;5070982;28;20236;-70
2022/05/25 07:47:34;;;;;;;1.50;1.47;;;;;;;14.20;77.48;100298.22;5071233;28;20171;-71
2022/05/25 07:50:00;;;;;;;2.53;1.50;;;;;;;14.43;76.92;100297.78;5071183;28;20194;-72
2022/05/25 07:52:29;;;;;;;3.07;1.60;;;;;;;14.65;77.03;100307.63;5071349;28;20575;-73
2022/05/25 07:54:56;;;;;;;9.37;1.87;;;;;;;14.71;75.25;100304.28;5071207;28;20204;-72
2022/05/25 07:57:21;;;;;;;0.70;0.70;;;;;;;14.77;74.73;100310.38;5071401;28;20661;-72
2022/05/25 07:59:47;;;;;;;1.37;0.70;;;;;;;14.94;75.12;100303.84;5071340;28;20171;-72
2022/05/25 08:07:57;;;;;;;0.57;0.57;;;;;;;15.23;72.17;100300.06;5071039;28;20166;-71
2022/05/25 08:10:25;;;;;;;0.83;0.67;;;;;;;15.06;70.25;100301.91;5071367;28;20202;-72
2022/05/25 08:12:55;;;;;;;1.43;1.00;;;;;;;15.08;71.17;100294.09;5071538;28;20501;-71
2022/05/25 08:15:21;;;;;;;0.73;0.73;;;;;;;15.20;71.35;100309.81;5071277;28;20261;-71
2022/05/25 08:17:47;;;;;;;0.47;0.47;;;;;;;15.36;70.10;100304.38;5071030;28;20185;-70
2022/05/25 08:20:12;;;;;;;2.60;1.90;;;;;;;15.18;68.98;100307.38;5069730;28;20170;-71
2022/05/25 08:22:38;;;;;;;1.47;1.33;;;;;;;15.16;70.00;100308.88;5071211;28;20575;-71
2022/05/25 08:25:06;;;;;;;0.63;0.63;;;;;;;15.34;71.16;100306.69;5071196;28;20641;-71
2022/05/25 08:27:31;;;;;;;0.57;0.57;;;;;;;15.52;68.74;100301.72;5070484;28;20183;-71
2022/05/25 08:29:58;;;;;;;1.00;0.90;;;;;;;15.73;67.76;100297.66;5070059;28;20208;-72
2022/05/25 08:32:23;;;;;;;0.97;0.40;;;;;;;15.87;67.45;100293.72;5070695;28;20257;-71
2022/05/25 08:34:49;;;;;;;0.67;0.67;;;;;;;15.92;65.69;100293.47;5071969;28;20258;-71
2022/05/25 08:37:14;;;;;;;0.73;0.73;;;;;;;16.01;66.04;100302.38;5072025;28;20213;-72
2022/05/25 08:39:39;;;;;;;8.50;0.73;;;;;;;15.91;65.15;100289.91;5071079;28;20177;-71
2022/05/25 08:42:10;;;;;;;1.70;0.73;;;;;;;15.89;66.15;100294.94;5070443;28;20187;-71
2022/05/25 08:44:36;;;;;;;0.50;0.50;;;;;;;15.61;64.83;100291.38;5070354;28;20189;-70
2022/05/25 08:47:04;;;;;;;1.13;1.03;;;;;;;15.70;66.16;100297.56;5070329;28;20261;-71
2022/05/25 08:49:32;;;;;;;0.30;0.30;;;;;;;15.69;64.77;100295.97;5070462;28;20206;-71
2022/05/25 08:52:02;;;;;;;0.30;0.20;;;;;;;15.74;63.96;100293.75;5071056;28;20174;-71
2022/05/25 08:54:28;;;;;;;5.53;0.53;;;;;;;15.67;64.34;100298.25;5070991;28;20163;-71
2022/05/25 08:57:04;;;;;;;2.80;0.87;;;;;;;15.97;65.36;100295.97;5069127;28;20174;-71
2022/05/25 08:59:50;;;;;;;0.43;0.43;;;;;;;16.28;65.03;100290.53;5069066;28;20541;-71
2022/05/25 09:02:25;;;;;;;0.67;0.67;;;;;;;16.73;66.63;100292.09;5067883;28;20240;-72
2022/05/25 09:04:56;;;;;;;0.67;0.47;;;;;;;16.99;64.27;100288.78;5068156;28;20169;-71
2022/05/25 09:07:24;;;;;;;0.80;0.80;;;;;;;16.92;61.82;100296.88;5070717;28;20643;-72
2022/05/25 09:09:51;;;;;;;2.43;1.00;;;;;;;16.86;62.93;100293.59;5074687;28;20653;-71
2022/05/25 09:12:32;;;;;;;1.93;1.83;;;;;;;16.86;62.88;100299.13;5074750;28;20179;-72
2022/05/25 09:15:10;;;;;;;1.73;0.90;;;;;;;16.82;62.20;100294.69;5074441;28;20600;-71
2022/05/25 09:17:41;;;;;;;7.73;0.80;;;;;;;16.69;60.09;100298.69;5074251;28;20259;-72
2022/05/25 09:20:09;;;;;;;8.63;1.47;;;;;;;16.48;60.45;100305.22;5074400;28;20205;-71
2022/05/25 09:22:35;;;;;;;0.00;0.00;;;;;;;16.44;62.08;100293.28;5074333;28;20635;-72
2022/05/25 09:25:04;;;;;;;0.93;0.93;;;;;;;16.53;63.71;100282.09;5074613;28;20174;-71
2022/05/25 09:28:02;;;;;;;1.23;1.17;;;;;;;16.65;62.64;100291.09;5074038;28;20178;-70
2022/05/25 09:30:29;;;;;;;1.30;1.20;;;;;;;16.60;62.45;100285.81;5066994;28;20701;-70
2022/05/25 09:33:01;;;;;;;1.17;1.00;;;;;;;16.54;61.05;100286.47;5074392;28;20171;-71
2022/05/25 09:35:33;;;;;;;1.73;1.63;;;;;;;16.48;61.86;100285.91;5074391;28;20410;-70
2022/05/25 09:38:05;;;;;;;0.50;0.50;;;;;;;16.69;61.05;100293.97;5073916;28;20166;-70
2022/05/25 09:40:38;;;;;;;0.50;0.50;;;;;;;16.85;60.09;100283.72;5074056;28;20174;-70
2022/05/25 09:43:08;;;;;;;1.47;1.37;;;;;;;16.92;58.66;100269.28;5073787;28;20175;-71
2022/05/25 09:45:39;;;;;;;0.50;0.50;;;;;;;17.05;57.25;100275.50;5073875;28;20209;-71
2022/05/25 09:48:15;;;;;;;0.30;0.30;;;;;;;17.19;59.05;100282.16;5074010;28;20653;-70
2022/05/25 09:50:48;;;;;;;0.33;0.33;;;;;;;17.38;59.70;100280.59;5074129;28;20177;-71
2022/05/25 09:53:17;;;;;;;0.13;0.13;;;;;;;17.67;57.08;100288.34;5070271;28;20813;-71
2022/05/25 09:55:51;;;;;;;2.00;0.90;;;;;;;17.52;55.72;100295.53;5069447;28;20209;-71
2022/05/25 09:58:43;;;;;;;4.60;0.70;;;;;;;17.18;57.70;100280.53;5072282;28;20269;-70
2022/05/25 10:01:28;;;;;;;0.30;0.30;;;;;;;17.07;59.11;100284.22;5073664;28;20253;-71
2022/05/25 10:03:54;;;;;;;0.10;0.10;;;;;;;17.05;59.46;100278.25;5073662;28;20166;-71
2022/05/25 10:06:22;;;;;;;1.00;0.90;;;;;;;17.24;58.15;100283.84;5073353;28;20237;-72
2022/05/25 10:09:11;;;;;;;1.10;0.57;;;;;;;17.50;57.83;100284.03;5073124;28;20697;-72
2022/05/25 10:11:45;;;;;;;0.90;0.83;;;;;;;17.71;57.51;100280.94;5073519;28;20171;-71
2022/05/25 10:14:21;;;;;;;0.33;0.33;;;;;;;17.66;57.34;100286.75;5073760;28;20162;-71
2022/05/25 10:16:49;;;;;;;10.00;0.73;;;;;;;17.97;57.72;100273.97;5073369;28;20706;-70
2022/05/25 10:19:18;;;;;;;0.30;0.30;;;;;;;17.94;54.39;100269.97;5073004;28;20204;-71
2022/05/25 10:21:53;;;;;;;1.17;1.13;;;;;;;18.06;54.05;100272.53;5073433;28;20181;-71
2022/05/25 10:24:24;;;;;;;0.20;0.20;;;;;;;18.11;54.46;100277.00;5073218;28;20166;-71
2022/05/25 10:26:53;;;;;;;1.17;1.13;;;;;;;18.20;53.64;100277.53;5073286;28;20187;-71
2022/05/25 10:36:45;;;;;;;0.30;0.30;;;;;;;18.12;53.35;100273.88;5072817;28;20273;-71
2022/05/25 10:38:04;;;;;;;0.20;0.20;;;;;;;18.32;51.11;100273.81;5073027;28;20193;-71
2022/05/25 10:40:31;;;;;;;0.23;0.23;;;;;;;18.29;53.40;100263.50;5072772;28;20207;-71
2022/05/25 10:42:58;;;;;;;0.30;0.30;;;;;;;18.51;53.13;100265.44;5072153;28;20166;-71
2022/05/25 10:45:51;;;;;;;0.50;0.50;;;;;;;18.73;51.84;100272.19;5063040;28;20277;-71
2022/05/25 10:48:47;;;;;;;0.10;0.10;;;;;;;18.55;50.13;100263.56;5057153;28;20162;-71
2022/05/25 10:51:26;;;;;;;0.10;0.10;;;;;;;18.37;50.82;100267.97;5072287;28;20708;-71
2022/05/25 10:56:53;;;;;;;0.57;0.57;;;;;;;18.48;53.55;100265.38;5069629;28;20650;-71
2022/05/25 10:59:28;;;;;;;0.30;0.30;;;;;;;18.47;51.51;100272.09;5071409;28;20177;-71
2022/05/25 11:02:05;;;;;;;0.20;0.20;;;;;;;18.70;50.80;100267.41;5070506;28;20620;-71
2022/05/25 11:04:53;;;;;;;0.50;0.50;;;;;;;18.54;51.14;100263.94;5070221;28;20265;-71
2022/05/25 11:07:37;;;;;;;0.13;0.13;;;;;;;18.20;51.00;100260.94;5069110;28;20178;-71
2022/05/25 11:10:27;;;;;;;0.13;0.07;;;;;;;18.01;51.40;100264.56;5070563;28;20551;-71
2022/05/25 11:13:02;;;;;;;1.07;0.53;;;;;;;18.24;51.60;100267.38;5070976;28;20186;-71
2022/05/25 11:15:43;;;;;;;1.30;0.50;;;;;;;18.15;50.51;100244.66;5071788;28;20158;-71
2022/05/25 11:18:36;;;;;;;0.23;0.23;;;;;;;18.24;51.20;100263.81;5071178;28;20254;-70
2022/05/25 11:21:10;;;;;;;0.30;0.30;;;;;;;18.24;52.25;100270.13;5071146;28;20182;-71
2022/05/25 11:23:43;;;;;;;0.40;0.40;;;;;;;18.60;52.69;100262.44;5071569;28;20215;-71
2022/05/25 11:26:08;;;;;;;0.10;0.10;;;;;;;18.66;50.16;100259.03;5071371;28;20174;-71
2022/05/25 11:29:13;;;;;;;8.53;0.40;;;;;;;18.76;49.79;100260.38;5071239;28;20175;-72
2022/05/25 11:32:09;;;;;;;0.57;0.33;;;;;;;19.02;49.67;100265.91;5066518;28;20186;-71
2022/05/25 11:34:47;;;;;;;0.30;0.30;;;;;;;18.82;46.81;100249.78;5067174;28;20245;-71
2022/05/25 11:37:29;;;;;;;0.10;0.10;;;;;;;18.91;49.55;100256.66;5071326;28;20624;-70
2022/05/25 11:39:57;;;;;;;0.40;0.40;;;;;;;19.10;48.66;100254.97;5071325;28;20710;-71
2022/05/25 11:42:41;;;;;;;0.10;0.10;;;;;;;18.77;51.07;100247.31;5071397;28;20210;-71
2022/05/25 11:45:21;;;;;;;0.20;0.20;;;;;;;18.83;50.38;100254.97;5068482;28;20198;-71
2022/05/25 11:47:52;;;;;;;0.63;0.63;;;;;;;18.69;48.21;100247.22;5070926;28;20177;-71
2022/05/25 11:50:36;;;;;;;0.00;0.00;;;;;;;18.97;49.00;100266.25;5069181;28;20295;-71
2022/05/25 11:53:33;;;;;;;0.13;0.13;;;;;;;18.84;48.13;100262.09;5070967;28;20178;-71
2022/05/25 11:56:23;;;;;;;0.30;0.30;;;;;;;18.83;48.22;100263.25;5071099;28;20189;-71
2022/05/25 11:59:13;;;;;;;1.20;0.90;;;;;;;18.91;48.42;100259.41;5071022;28;20500;-71
2022/05/25 12:01:50;;;;;;;0.03;0.03;;;;;;;19.02;47.60;100249.31;5060048;28;20233;-73
2022/05/25 12:04:53;;;;;;;0.10;0.10;;;;;;;19.33;48.57;100245.38;5071246;28;20677;-71